createdAt,value
2023-01-22T00:00:30.000Z,27.69
2023-01-22T00:03:01.157Z,27.74
2023-01-22T00:05:32.005Z,28.01
2023-01-22T00:08:03.064Z,28.25
2023-01-22T00:10:34.129Z,28.59
2023-01-22T00:13:04.821Z,28.71
2023-01-22T00:15:36.364Z,28.13
2023-01-22T00:18:07.602Z,27.13
2023-01-22T00:20:39.327Z,27.68
2023-01-22T00:23:11.935Z,26.95
2023-01-22T00:25:42.727Z,26.43
2023-01-22T00:28:14.564Z,26.59
2023-01-22T00:30:45.602Z,26.90
2023-01-22T00:33:16.724Z,26.86
2023-01-22T00:35:47.629Z,26.43
2023-01-22T00:38:18.702Z,26.30
2023-01-22T00:40:49.845Z,26.30
2023-01-22T00:43:20.686Z,25.66
2023-01-22T00:45:52.003Z,26.01
2023-01-22T00:48:22.757Z,25.51
2023-01-22T00:50:54.510Z,25.36
2023-01-22T00:53:25.742Z,25.64
2023-01-22T00:55:58.645Z,24.81
2023-01-22T00:58:30.359Z,25.03
2023-01-22T01:01:03.655Z,24.39
2023-01-22T01:03:36.913Z,24.23
2023-01-22T01:06:15.730Z,23.91
2023-01-22T01:08:49.239Z,23.92
2023-01-22T01:11:23.355Z,23.72
2023-01-22T01:13:54.834Z,23.31
2023-01-22T01:16:31.750Z,23.29
2023-01-22T01:19:04.777Z,22.49
2023-01-22T01:21:36.541Z,22.17
2023-01-22T01:24:07.937Z,21.51
2023-01-22T01:26:39.144Z,21.20
2023-01-22T01:29:11.543Z,21.09
2023-01-22T01:31:42.678Z,21.07
2023-01-22T01:34:14.952Z,21.00
2023-01-22T01:36:49.129Z,20.86
2023-01-22T01:39:21.954Z,20.88
2023-01-22T01:41:53.109Z,20.78
2023-01-22T01:44:25.750Z,20.64
2023-01-22T01:47:08.062Z,20.47
2023-01-22T01:49:49.877Z,20.73
2023-01-22T01:52:20.300Z,20.38
2023-01-22T01:54:54.509Z,20.82
2023-01-22T01:57:29.908Z,20.57
2023-01-22T02:00:02.700Z,20.35
2023-01-22T02:02:43.663Z,20.97
2023-01-22T02:05:14.835Z,21.12
2023-01-22T02:07:46.003Z,20.41
2023-01-22T02:10:17.205Z,21.01
2023-01-22T02:12:49.218Z,21.06
2023-01-22T02:15:20.441Z,21.59
2023-01-22T02:17:52.585Z,22.16
2023-01-22T02:20:24.610Z,22.32
2023-01-22T02:22:56.009Z,22.42
2023-01-22T02:25:27.922Z,22.73
2023-01-22T02:27:58.241Z,22.49
2023-01-22T02:30:29.465Z,22.79
2023-01-22T02:33:00.231Z,22.68
2023-01-22T02:35:31.315Z,22.83
2023-01-22T02:38:02.655Z,22.52
2023-01-22T02:40:35.240Z,23.04
2023-01-22T02:43:07.185Z,22.79
2023-01-22T02:45:38.484Z,22.63
2023-01-22T02:48:09.459Z,22.76
2023-01-22T02:50:40.585Z,22.73
2023-01-22T02:53:11.592Z,23.14
2023-01-22T02:55:43.346Z,23.35
2023-01-22T02:58:14.702Z,22.91
2023-01-22T03:00:45.945Z,22.99
2023-01-22T03:03:19.666Z,23.58
2023-01-22T03:05:54.753Z,23.43
2023-01-22T03:08:28.100Z,23.27
2023-01-22T03:11:02.969Z,22.95
2023-01-22T03:13:52.757Z,23.28
2023-01-22T03:16:42.022Z,23.27
2023-01-22T03:19:31.827Z,24.21
2023-01-22T03:22:03.000Z,23.63
2023-01-22T03:24:34.589Z,23.06
2023-01-22T03:27:07.751Z,24.66
2023-01-22T03:29:40.353Z,25.20
2023-01-22T03:32:13.069Z,23.90
2023-01-22T03:34:45.690Z,23.46
2023-01-22T03:37:17.017Z,23.19
2023-01-22T03:39:50.424Z,23.47
2023-01-22T03:42:28.605Z,23.20
2023-01-22T03:44:59.884Z,23.69
2023-01-22T03:47:31.540Z,23.52
2023-01-22T03:50:04.920Z,24.02
2023-01-22T03:52:35.311Z,24.27
2023-01-22T03:55:07.003Z,23.87
2023-01-22T03:57:38.073Z,24.12
2023-01-22T04:00:10.481Z,24.81
2023-01-22T04:02:44.318Z,25.20
2023-01-22T04:05:23.634Z,24.27
2023-01-22T04:07:55.165Z,24.50
2023-01-22T04:10:29.708Z,25.23
2023-01-22T04:13:03.137Z,24.59
2023-01-22T04:15:34.215Z,24.60
2023-01-22T04:18:11.284Z,25.18
2023-01-22T04:21:07.207Z,24.79
2023-01-22T04:23:45.721Z,24.81
2023-01-22T04:26:16.955Z,25.21
2023-01-22T04:28:48.160Z,25.00
2023-01-22T04:31:19.452Z,24.00
2023-01-22T04:34:13.562Z,24.66
2023-01-22T04:36:49.295Z,24.77
2023-01-22T04:39:20.964Z,25.04
2023-01-22T04:41:52.280Z,25.51
2023-01-22T04:44:23.397Z,26.28
2023-01-22T04:46:54.267Z,26.10
2023-01-22T04:49:25.889Z,26.21
2023-01-22T04:51:57.779Z,25.35
2023-01-22T04:54:30.357Z,25.85
2023-01-22T04:57:01.500Z,25.83
2023-01-22T04:59:32.854Z,25.36
2023-01-22T05:02:05.564Z,25.95
2023-01-22T05:04:36.660Z,26.35
2023-01-22T05:07:07.786Z,26.37
2023-01-22T05:09:38.874Z,25.62
2023-01-22T05:12:10.012Z,25.07
2023-01-22T05:14:44.462Z,25.45
2023-01-22T05:17:15.666Z,24.86
2023-01-22T05:19:47.549Z,24.93
2023-01-22T05:22:25.099Z,24.70
2023-01-22T05:24:56.224Z,24.27
2023-01-22T05:27:27.467Z,24.06
2023-01-22T05:30:07.260Z,23.67
2023-01-22T05:32:48.938Z,23.62
2023-01-22T05:35:19.539Z,23.47
2023-01-22T05:37:50.647Z,23.09
2023-01-22T05:40:22.748Z,23.21
2023-01-22T05:42:54.129Z,23.12
2023-01-22T05:45:25.706Z,22.97
2023-01-22T05:48:23.120Z,23.18
2023-01-22T05:51:10.587Z,23.33
2023-01-22T05:53:42.139Z,23.41
2023-01-22T05:56:13.439Z,23.38
2023-01-22T05:58:44.693Z,23.28
2023-01-22T06:01:15.952Z,23.20
2023-01-22T06:03:51.295Z,23.26
2023-01-22T06:06:25.722Z,23.06
2023-01-22T06:08:58.327Z,23.09
2023-01-22T06:11:35.037Z,22.82
2023-01-22T06:14:06.567Z,22.68
2023-01-22T06:16:37.625Z,22.63
2023-01-22T06:19:12.819Z,22.71
2023-01-22T06:21:48.173Z,22.55
2023-01-22T06:24:21.465Z,22.45
2023-01-22T06:26:52.431Z,22.39
2023-01-22T06:29:24.973Z,22.20
2023-01-22T06:31:56.736Z,22.10
2023-01-22T06:34:27.967Z,22.12
2023-01-22T06:37:00.116Z,22.23
2023-01-22T06:39:35.010Z,22.11
2023-01-22T06:42:16.149Z,22.09
2023-01-22T06:44:47.609Z,22.30
2023-01-22T06:47:18.733Z,22.23
2023-01-22T06:49:50.127Z,22.18
2023-01-22T06:52:21.625Z,22.28
2023-01-22T06:54:52.779Z,22.28
2023-01-22T06:57:24.610Z,22.37
2023-01-22T06:59:55.699Z,22.36
2023-01-22T07:02:26.968Z,22.03
2023-01-22T07:04:58.051Z,21.95
2023-01-22T07:07:29.184Z,21.85
2023-01-22T07:10:00.244Z,22.01
2023-01-22T07:12:31.467Z,22.18
2023-01-22T07:15:02.567Z,22.05
2023-01-22T07:17:33.666Z,22.05
2023-01-22T07:20:05.343Z,21.79
2023-01-22T07:22:36.001Z,21.63
2023-01-22T07:25:08.440Z,21.64
2023-01-22T07:27:39.975Z,21.60
2023-01-22T07:30:11.818Z,21.51
2023-01-22T07:32:43.338Z,21.40
2023-01-22T07:35:14.390Z,21.32
2023-01-22T07:37:45.812Z,21.16
2023-01-22T07:40:17.307Z,21.24
2023-01-22T07:42:47.982Z,21.08
2023-01-22T07:45:20.755Z,21.24
2023-01-22T07:47:59.477Z,21.02
2023-01-22T07:50:32.835Z,21.00
2023-01-22T07:53:03.911Z,20.96
2023-01-22T07:55:35.034Z,21.12
2023-01-22T07:58:08.146Z,20.88
2023-01-22T08:00:39.473Z,21.01
2023-01-22T08:03:14.955Z,20.87
2023-01-22T08:05:46.013Z,20.87
2023-01-22T08:08:20.035Z,20.75
2023-01-22T08:10:51.072Z,20.74
2023-01-22T08:13:22.052Z,20.63
2023-01-22T08:15:53.145Z,20.40
2023-01-22T08:18:24.522Z,20.33
2023-01-22T08:20:55.420Z,20.48
2023-01-22T08:23:26.449Z,20.47
2023-01-22T08:26:02.572Z,20.34
2023-01-22T08:28:34.044Z,20.30
2023-01-22T08:31:09.372Z,20.24
2023-01-22T08:33:42.478Z,20.28
2023-01-22T08:36:13.796Z,20.23
2023-01-22T08:38:44.875Z,20.08
2023-01-22T08:41:17.190Z,20.21
2023-01-22T08:43:48.073Z,20.23
2023-01-22T08:46:19.126Z,20.02
2023-01-22T08:48:51.853Z,20.11
2023-01-22T08:51:24.914Z,20.17
2023-01-22T08:53:56.326Z,20.24
2023-01-22T08:56:27.245Z,20.32
2023-01-22T08:59:01.539Z,20.14
2023-01-22T09:01:32.655Z,20.04
2023-01-22T09:04:04.362Z,20.12
2023-01-22T09:06:35.961Z,19.95
2023-01-22T09:09:07.791Z,20.00
2023-01-22T09:11:38.260Z,20.02
2023-01-22T09:14:11.261Z,20.14
2023-01-22T09:16:42.472Z,20.21
2023-01-22T09:19:13.995Z,20.24
2023-01-22T09:21:45.259Z,19.98
2023-01-22T09:24:16.179Z,20.06
2023-01-22T09:26:47.724Z,19.95
2023-01-22T09:29:18.996Z,19.96
2023-01-22T09:31:52.485Z,19.99
2023-01-22T09:34:23.545Z,19.88
2023-01-22T09:36:54.541Z,19.86
2023-01-22T09:39:25.804Z,19.80
2023-01-22T09:41:59.054Z,19.95
2023-01-22T09:44:46.708Z,19.80
2023-01-22T09:47:24.242Z,19.80
2023-01-22T09:50:18.751Z,19.89
2023-01-22T09:52:53.587Z,19.81
2023-01-22T09:55:26.868Z,19.82
2023-01-22T09:57:59.039Z,19.87
2023-01-22T10:00:45.616Z,19.72
2023-01-22T10:03:24.705Z,19.70
2023-01-22T10:06:03.609Z,19.59
2023-01-22T10:09:01.131Z,19.62
2023-01-22T10:11:31.997Z,19.65
2023-01-22T10:14:04.505Z,19.42
2023-01-22T10:16:35.756Z,19.48
2023-01-22T10:19:08.724Z,19.48
2023-01-22T10:21:49.170Z,19.44
2023-01-22T10:24:20.003Z,19.38
2023-01-22T10:26:56.034Z,19.37
2023-01-22T10:29:33.763Z,19.25
2023-01-22T10:32:33.766Z,19.25
2023-01-22T10:35:04.992Z,19.33
2023-01-22T10:37:50.147Z,19.21
2023-01-22T10:40:36.470Z,19.11
2023-01-22T10:43:19.312Z,19.06
2023-01-22T10:45:58.325Z,19.00
2023-01-22T10:48:29.497Z,19.14
2023-01-22T10:51:14.246Z,18.96
2023-01-22T10:53:57.068Z,18.93
2023-01-22T10:56:36.762Z,18.88
2023-01-22T10:59:24.971Z,18.90
2023-01-22T11:02:01.646Z,18.92
2023-01-22T11:04:35.030Z,18.70
2023-01-22T11:07:11.082Z,18.79
2023-01-22T11:10:23.625Z,18.55
2023-01-22T11:13:07.689Z,18.61
2023-01-22T11:15:55.355Z,18.50
2023-01-22T11:18:36.412Z,18.55
2023-01-22T11:21:26.616Z,18.47
2023-01-22T11:24:11.714Z,18.51
2023-01-22T11:27:10.578Z,18.38
2023-01-22T11:30:03.587Z,18.16
2023-01-22T11:33:10.950Z,18.23
2023-01-22T11:36:22.037Z,18.13
2023-01-22T11:39:05.696Z,18.20
2023-01-22T11:41:58.535Z,18.14
2023-01-22T11:44:38.488Z,18.02
2023-01-22T11:47:24.575Z,18.09
2023-01-22T11:50:06.479Z,18.05
2023-01-22T11:53:05.800Z,18.08
2023-01-22T11:56:02.101Z,18.08
2023-01-22T11:59:01.658Z,17.84
2023-01-22T12:02:06.385Z,17.69
2023-01-22T12:04:56.170Z,17.80
2023-01-22T12:07:53.732Z,17.73
2023-01-22T12:10:43.202Z,17.74
2023-01-22T12:13:32.317Z,17.69
2023-01-22T12:16:17.683Z,17.67
2023-01-22T12:19:03.870Z,17.67
2023-01-22T12:21:40.486Z,17.91
2023-01-22T12:24:22.671Z,17.66
2023-01-22T12:27:22.525Z,17.40
2023-01-22T12:30:15.394Z,17.59
2023-01-22T12:32:51.651Z,17.59
2023-01-22T12:35:24.688Z,17.73
2023-01-22T12:38:24.066Z,17.58
2023-01-22T12:41:16.175Z,17.51
2023-01-22T12:44:19.203Z,17.49
2023-01-22T12:47:14.553Z,17.50
2023-01-22T12:49:53.518Z,17.57
2023-01-22T12:52:33.767Z,17.24
2023-01-22T12:55:25.414Z,17.33
2023-01-22T12:57:56.333Z,17.18
2023-01-22T13:00:36.287Z,17.18
2023-01-22T13:03:31.290Z,17.26
2023-01-22T13:06:05.315Z,17.00
2023-01-22T13:08:42.735Z,17.09
2023-01-22T13:11:16.050Z,17.22
2023-01-22T13:13:55.196Z,17.23
2023-01-22T13:16:34.591Z,16.96
2023-01-22T13:19:26.831Z,16.89
2023-01-22T13:22:02.343Z,17.00
2023-01-22T13:24:33.423Z,17.00
2023-01-22T13:27:05.316Z,17.03
2023-01-22T13:29:39.013Z,17.04
2023-01-22T13:32:23.230Z,16.82
2023-01-22T13:35:07.311Z,16.87
2023-01-22T13:37:40.157Z,16.94
2023-01-22T13:40:27.340Z,16.92
2023-01-22T13:42:59.824Z,16.91
2023-01-22T13:45:33.181Z,16.62
2023-01-22T13:48:07.250Z,16.68
2023-01-22T13:50:39.660Z,16.72
2023-01-22T13:53:20.881Z,16.58
2023-01-22T13:55:52.364Z,16.61
2023-01-22T13:58:48.379Z,16.65
2023-01-22T14:01:31.866Z,16.51
2023-01-22T14:04:06.993Z,16.54
2023-01-22T14:06:50.779Z,16.54
2023-01-22T14:09:28.711Z,16.60
2023-01-22T14:12:00.554Z,16.38
2023-01-22T14:14:41.921Z,16.32
2023-01-22T14:17:30.513Z,16.22
2023-01-22T14:20:01.717Z,16.28
2023-01-22T14:22:32.911Z,16.28
2023-01-22T14:25:04.150Z,16.35
2023-01-22T14:27:49.998Z,16.29
2023-01-22T14:30:23.343Z,16.25
2023-01-22T14:32:55.719Z,16.20
2023-01-22T14:35:28.769Z,16.28
2023-01-22T14:38:00.327Z,16.22
2023-01-22T14:40:31.880Z,16.17
2023-01-22T14:43:03.834Z,16.17
2023-01-22T14:45:34.917Z,16.14
2023-01-22T14:48:06.478Z,16.15
2023-01-22T14:50:37.384Z,16.26
2023-01-22T14:53:08.886Z,16.30
2023-01-22T14:55:39.898Z,16.28
2023-01-22T14:58:11.967Z,16.08
2023-01-22T15:00:43.195Z,16.00
2023-01-22T15:03:14.179Z,16.12
2023-01-22T15:05:46.090Z,16.11
2023-01-22T15:08:17.215Z,15.81
2023-01-22T15:10:48.125Z,15.70
2023-01-22T15:13:19.195Z,15.71
2023-01-22T15:15:50.275Z,15.76
2023-01-22T15:18:21.499Z,15.73
2023-01-22T15:20:52.514Z,15.70
2023-01-22T15:23:23.562Z,15.70
2023-01-22T15:26:02.193Z,15.76
2023-01-22T15:28:33.246Z,15.61
2023-01-22T15:31:11.677Z,15.53
2023-01-22T15:33:43.743Z,15.41
2023-01-22T15:36:14.632Z,15.38
2023-01-22T15:38:45.722Z,15.48
2023-01-22T15:41:31.193Z,15.42
2023-01-22T15:44:07.497Z,15.46
2023-01-22T15:46:41.029Z,15.40
2023-01-22T15:49:14.609Z,15.33
2023-01-22T15:51:45.760Z,15.47
2023-01-22T15:54:18.060Z,15.34
2023-01-22T15:56:49.185Z,15.40
2023-01-22T15:59:20.201Z,15.32
2023-01-22T16:01:51.369Z,15.11
2023-01-22T16:04:22.524Z,15.15
2023-01-22T16:06:53.667Z,15.13
2023-01-22T16:09:25.095Z,15.05
2023-01-22T16:11:56.357Z,14.89
2023-01-22T16:14:29.775Z,14.98
2023-01-22T16:17:01.971Z,14.93
2023-01-22T16:19:33.283Z,14.83
2023-01-22T16:22:04.547Z,14.72
2023-01-22T16:24:35.906Z,14.94
2023-01-22T16:27:06.796Z,14.96
2023-01-22T16:29:37.725Z,15.10
2023-01-22T16:32:09.108Z,15.18
2023-01-22T16:34:40.657Z,15.09
2023-01-22T16:37:11.822Z,15.09
2023-01-22T16:39:43.001Z,15.11
2023-01-22T16:42:14.243Z,15.22
2023-01-22T16:44:45.600Z,15.12
2023-01-22T16:47:16.649Z,15.03
2023-01-22T16:49:48.017Z,15.09
2023-01-22T16:52:22.903Z,15.11
2023-01-22T16:54:54.369Z,14.85
2023-01-22T16:57:25.391Z,14.76
2023-01-22T16:59:56.502Z,14.75
2023-01-22T17:02:27.628Z,14.61
2023-01-22T17:04:59.501Z,14.70
2023-01-22T17:07:33.850Z,14.64
2023-01-22T17:10:05.364Z,14.74
2023-01-22T17:12:36.466Z,14.60
2023-01-22T17:15:08.086Z,14.49
2023-01-22T17:17:39.302Z,14.59
2023-01-22T17:20:11.107Z,14.79
2023-01-22T17:22:41.992Z,14.65
2023-01-22T17:25:12.995Z,14.46
2023-01-22T17:27:44.374Z,14.42
2023-01-22T17:30:17.143Z,14.32
2023-01-22T17:32:48.650Z,14.24
2023-01-22T17:35:19.859Z,14.40
2023-01-22T17:37:51.119Z,14.62
2023-01-22T17:40:22.333Z,14.78
2023-01-22T17:42:53.575Z,14.74
2023-01-22T17:45:24.671Z,14.72
2023-01-22T17:47:56.029Z,14.87
2023-01-22T17:50:26.932Z,15.01
2023-01-22T17:52:57.761Z,15.18
2023-01-22T17:55:31.303Z,15.43
2023-01-22T17:58:02.295Z,15.50
2023-01-22T18:00:33.477Z,15.44
2023-01-22T18:03:04.889Z,15.54
2023-01-22T18:05:36.915Z,15.57
2023-01-22T18:08:08.176Z,15.83
2023-01-22T18:10:40.407Z,15.94
2023-01-22T18:13:11.502Z,16.09
2023-01-22T18:15:47.995Z,16.48
2023-01-22T18:18:19.563Z,16.60
2023-01-22T18:20:51.089Z,16.54
2023-01-22T18:23:22.489Z,16.70
2023-01-22T18:25:57.757Z,16.99
2023-01-22T18:28:29.841Z,17.18
2023-01-22T18:31:16.570Z,17.27
2023-01-22T18:33:49.643Z,17.53
2023-01-22T18:36:24.444Z,17.52
2023-01-22T18:38:56.024Z,17.38
2023-01-22T18:41:28.669Z,17.15
2023-01-22T18:44:02.095Z,17.38
2023-01-22T18:46:35.613Z,17.48
2023-01-22T18:49:10.168Z,17.42
2023-01-22T18:51:43.432Z,17.52
2023-01-22T18:54:14.731Z,17.50
2023-01-22T18:56:45.842Z,17.64
2023-01-22T18:59:17.006Z,17.89
2023-01-22T19:01:53.017Z,17.99
2023-01-22T19:04:24.166Z,18.18
2023-01-22T19:06:58.320Z,18.07
2023-01-22T19:09:29.924Z,18.19
2023-01-22T19:12:01.230Z,18.29
2023-01-22T19:14:32.561Z,18.41
2023-01-22T19:17:05.056Z,18.53
2023-01-22T19:19:36.276Z,18.40
2023-01-22T19:22:07.398Z,18.40
2023-01-22T19:24:38.920Z,18.46
2023-01-22T19:27:10.052Z,18.72
2023-01-22T19:29:41.315Z,18.68
2023-01-22T19:32:16.286Z,18.77
2023-01-22T19:34:47.388Z,18.94
2023-01-22T19:37:19.187Z,19.12
2023-01-22T19:39:50.428Z,19.43
2023-01-22T19:42:21.501Z,19.73
2023-01-22T19:44:53.652Z,20.36
2023-01-22T19:47:25.071Z,20.49
2023-01-22T19:49:55.984Z,20.99
2023-01-22T19:52:28.985Z,20.89
2023-01-22T19:55:00.102Z,20.81
2023-01-22T19:57:31.610Z,20.87
2023-01-22T20:00:02.677Z,21.28
2023-01-22T20:02:39.528Z,21.56
2023-01-22T20:05:10.782Z,21.68
2023-01-22T20:07:41.931Z,22.13
2023-01-22T20:10:15.494Z,22.27
2023-01-22T20:12:46.956Z,22.75
2023-01-22T20:15:18.211Z,22.45
2023-01-22T20:17:51.482Z,23.05
2023-01-22T20:20:23.887Z,23.11
2023-01-22T20:22:55.493Z,23.10
2023-01-22T20:25:26.444Z,23.09
2023-01-22T20:27:57.766Z,22.86
2023-01-22T20:30:28.966Z,23.11
2023-01-22T20:32:59.910Z,23.54
2023-01-22T20:35:31.129Z,23.49
2023-01-22T20:38:03.089Z,23.92
2023-01-22T20:40:36.091Z,24.27
2023-01-22T20:43:07.956Z,24.32
2023-01-22T20:45:38.903Z,23.85
2023-01-22T20:50:44.465Z,23.83
2023-01-22T20:53:15.357Z,23.87
2023-01-22T20:55:46.453Z,23.89
2023-01-22T20:58:17.559Z,24.39
2023-01-22T21:00:49.293Z,24.16
2023-01-22T21:03:20.488Z,24.41
2023-01-22T21:05:52.167Z,24.24
2023-01-22T21:08:23.096Z,24.16
2023-01-22T21:11:14.245Z,23.89
2023-01-22T21:13:45.567Z,24.05
2023-01-22T21:16:19.443Z,23.72
2023-01-22T21:18:50.950Z,24.22
2023-01-22T21:21:22.562Z,23.91
2023-01-22T21:23:56.170Z,23.86
2023-01-22T21:26:29.489Z,23.67
2023-01-22T21:29:03.812Z,23.34
2023-01-22T21:31:35.231Z,23.71
2023-01-22T21:34:07.228Z,23.97
2023-01-22T21:36:41.367Z,23.21
2023-01-22T21:39:15.801Z,23.64
2023-01-22T21:41:47.265Z,23.09
2023-01-22T21:44:39.235Z,23.35
2023-01-22T21:47:09.401Z,23.74
2023-01-22T21:49:40.567Z,23.45
2023-01-22T21:52:11.694Z,23.58
2023-01-22T21:54:45.407Z,23.70
2023-01-22T21:57:18.222Z,23.51
2023-01-22T21:59:49.115Z,23.91
2023-01-22T22:02:20.993Z,23.34
2023-01-22T22:04:51.239Z,23.43
2023-01-22T22:07:22.507Z,23.97
2023-01-22T22:09:53.621Z,23.94
2023-01-22T22:12:25.075Z,24.82
2023-01-22T22:14:56.261Z,25.66
2023-01-22T22:17:27.543Z,26.05
2023-01-22T22:19:58.836Z,25.27
2023-01-22T22:22:30.232Z,25.28
2023-01-22T22:25:01.339Z,25.75
2023-01-22T22:27:32.996Z,25.45
2023-01-22T22:30:04.343Z,25.79
2023-01-22T22:32:35.441Z,26.64
2023-01-22T22:35:06.919Z,25.99
2023-01-22T22:37:38.331Z,25.98
2023-01-22T22:40:12.574Z,26.37
2023-01-22T22:42:43.694Z,27.46
2023-01-22T22:45:14.861Z,26.62
2023-01-22T22:47:45.499Z,25.91
2023-01-22T22:50:16.654Z,26.30
2023-01-22T22:52:48.713Z,27.59
2023-01-22T22:55:19.679Z,27.41
2023-01-22T22:57:51.210Z,27.76
2023-01-22T23:00:22.618Z,28.23
2023-01-22T23:02:53.984Z,27.44
2023-01-22T23:05:24.907Z,27.03
2023-01-22T23:07:55.783Z,26.22
2023-01-22T23:10:33.090Z,26.31
2023-01-22T23:13:05.980Z,26.29
2023-01-22T23:15:37.285Z,27.24
2023-01-22T23:18:08.452Z,27.85
2023-01-22T23:20:39.670Z,28.63
2023-01-22T23:23:10.807Z,28.63
2023-01-22T23:25:45.537Z,27.26
2023-01-22T23:28:16.425Z,27.22
2023-01-22T23:30:47.540Z,25.76
2023-01-22T23:33:19.154Z,26.96
2023-01-22T23:35:52.704Z,26.75
2023-01-22T23:38:24.076Z,27.25
2023-01-22T23:40:59.923Z,26.92
2023-01-22T23:43:31.156Z,26.73
2023-01-22T23:46:02.260Z,27.59
2023-01-22T23:48:33.351Z,27.55
2023-01-22T23:51:04.446Z,27.20
2023-01-22T23:53:41.763Z,28.57
2023-01-22T23:56:14.020Z,27.01
2023-01-22T23:58:45.259Z,27.80
